Time;durP1;ratioP1;P1;durP2;ratioP2;P2;SDS_P1;SDS_P2;PMS_P1;PMS_P2;Temp;Humidity;BMP_temperature;BMP_pressure;BME280_temperature;BME280_humidity;BME280_pressure;Samples;Min_cycle;Max_cycle;Signal;HPM_P1;HPM_P2
2022/09/03 00:00:20;;;;;;;3.00;1.80;;;;;;;11.35;86.83;99155.31;103338;1290;76581;-73
2022/09/03 00:03:32;;;;;;;3.40;2.20;;;;;;;11.35;86.95;99154.27;103807;1286;69561;-74
2022/09/03 00:06:16;;;;;;;4.70;1.60;;;;;;;11.34;87.02;99155.77;103263;1291;73769;-73
2022/09/03 00:09:03;;;;;;;3.50;2.10;;;;;;;11.31;87.17;99157.59;103066;1292;61370;-73
2022/09/03 00:12:01;;;;;;;6.00;1.80;;;;;;;11.27;87.26;99155.48;103257;1291;61998;-73
2022/09/03 00:14:38;;;;;;;3.10;1.80;;;;;;;11.25;87.71;99154.20;102589;1297;76456;-74
2022/09/03 00:17:15;;;;;;;3.80;2.30;;;;;;;11.25;87.77;99156.76;102629;1297;70368;-73
2022/09/03 00:20:10;;;;;;;4.00;1.70;;;;;;;11.22;88.23;99153.22;102696;1297;73185;-74
2022/09/03 00:22:59;;;;;;;2.60;2.00;;;;;;;11.19;88.45;99153.77;102109;1303;61480;-74
2022/09/03 00:25:33;;;;;;;7.70;2.20;;;;;;;11.17;89.02;99152.64;102166;1295;61551;-74
2022/09/03 00:28:04;;;;;;;4.80;2.20;;;;;;;11.15;89.33;99149.05;102829;1294;75390;-74
2022/09/03 00:30:32;;;;;;;5.10;2.20;;;;;;;11.12;89.81;99149.92;102695;1294;70315;-74
2022/09/03 00:33:08;;;;;;;6.20;2.20;;;;;;;11.09;90.15;99145.86;102656;1294;74596;-72
2022/09/03 00:36:14;;;;;;;5.80;2.10;;;;;;;11.05;90.69;99145.45;103041;1293;61341;-74
2022/09/03 00:38:40;;;;;;;3.20;2.10;;;;;;;10.99;91.57;99149.23;102778;1294;62115;-72
2022/09/03 00:41:40;;;;;;;3.40;2.50;;;;;;;10.94;92.00;99148.08;102591;1293;76753;-74
2022/09/03 00:44:35;;;;;;;3.70;2.40;;;;;;;10.90;93.18;99144.09;103101;1290;69686;-74
2022/09/03 00:47:10;;;;;;;4.80;2.90;;;;;;;10.87;94.05;99142.90;102994;1290;73055;-73
2022/09/03 00:49:51;;;;;;;6.00;2.60;;;;;;;10.84;94.30;99140.95;103271;1291;61556;-73
2022/09/03 00:52:33;;;;;;;4.50;2.80;;;;;;;10.81;94.96;99139.90;103743;1285;61295;-74
2022/09/03 00:55:10;;;;;;;5.20;3.00;;;;;;;10.80;95.69;99134.85;103446;1287;76846;-73
2022/09/03 00:58:14;;;;;;;4.10;2.50;;;;;;;10.80;96.07;99133.42;103469;1286;70370;-74
2022/09/03 01:00:44;;;;;;;5.50;2.90;;;;;;;10.81;96.88;99130.13;104070;1279;73454;-73
2022/09/03 01:03:29;;;;;;;4.90;2.50;;;;;;;10.81;96.44;99133.66;104447;1278;61504;-73
2022/09/03 01:06:09;;;;;;;5.10;2.80;;;;;;;10.81;96.35;99137.23;104473;1278;62127;-73
2022/09/03 01:09:20;;;;;;;3.30;2.40;;;;;;;10.79;96.52;99140.91;104603;1278;76294;-72
2022/09/03 01:11:49;;;;;;;;;;;;;;;10.76;96.55;99145.19;104566;1278;68285;-73
2022/09/03 01:14:51;;;;;;;4.70;2.50;;;;;;;10.73;96.82;99142.39;104907;1270;74717;-73
2022/09/03 01:17:28;;;;;;;5.50;2.60;;;;;;;10.71;96.78;99141.11;105028;1270;61284;-74
2022/09/03 01:20:03;;;;;;;3.20;2.50;;;;;;;10.69;97.13;99138.88;104970;1270;61285;-75
2022/09/03 01:22:48;;;;;;;7.10;2.90;;;;;;;10.68;97.17;99137.75;104995;1270;74907;-75
2022/09/03 01:25:37;;;;;;;3.10;2.30;;;;;;;10.67;97.27;99138.87;105058;1270;70213;-74
2022/09/03 01:28:12;;;;;;;3.40;2.20;;;;;;;10.65;97.87;99138.83;105066;1270;72626;-74
2022/09/03 01:30:59;;;;;;;5.30;2.40;;;;;;;10.62;98.29;99139.35;104985;1270;61349;-73
2022/09/03 01:33:48;;;;;;;5.40;2.80;;;;;;;10.63;98.70;99146.28;105084;1270;61416;-73
2022/09/03 01:36:33;;;;;;;5.90;2.40;;;;;;;10.61;98.89;99145.16;105075;1270;74850;-73
2022/09/03 01:39:03;;;;;;;4.20;2.10;;;;;;;10.58;99.90;99149.94;105049;1270;68399;-73
2022/09/03 01:44:49;;;;;;;3.90;2.40;;;;;;;10.52;100.00;99149.42;105023;1270;61722;-73
2022/09/03 01:47:31;;;;;;;5.20;2.50;;;;;;;10.49;100.00;99150.14;105060;1270;62107;-74
2022/09/03 01:50:33;;;;;;;3.20;2.30;;;;;;;10.45;100.00;99150.54;105043;1270;76745;-73
2022/09/03 01:53:27;;;;;;;4.80;2.40;;;;;;;10.42;100.00;99147.95;104532;1277;69548;-74
2022/09/03 01:56:32;;;;;;;4.40;2.60;;;;;;;10.39;100.00;99154.54;104571;1277;73736;-74
2022/09/03 01:59:32;;;;;;;5.40;2.90;;;;;;;10.36;100.00;99156.14;104523;1277;61330;-76
2022/09/03 02:02:07;;;;;;;4.80;2.70;;;;;;;10.32;100.00;99158.48;103836;1285;62352;-73
2022/09/03 02:04:33;;;;;;;4.90;2.70;;;;;;;10.31;100.00;99156.63;103843;1285;76533;-73
2022/09/03 02:07:01;;;;;;;5.40;2.90;;;;;;;10.29;100.00;99150.87;103580;1286;61456;-73
2022/09/03 02:09:27;;;;;;;4.50;2.50;;;;;;;10.27;100.00;99148.88;103842;1285;73568;-74
2022/09/03 02:12:10;;;;;;;4.10;2.40;;;;;;;10.25;100.00;99145.63;103830;1285;61276;-74
2022/09/03 02:14:36;;;;;;;3.80;2.50;;;;;;;10.22;100.00;99150.05;103868;1285;62041;-75
2022/09/03 02:17:05;;;;;;;3.60;2.60;;;;;;;10.19;100.00;99151.48;103832;1284;61363;-74
2022/09/03 02:19:33;;;;;;;4.70;2.90;;;;;;;10.17;100.00;99155.20;103856;1285;69190;-74
2022/09/03 02:21:59;;;;;;;4.30;2.20;;;;;;;10.14;100.00;99156.60;103483;1285;74573;-74
2022/09/03 02:24:27;;;;;;;4.30;3.30;;;;;;;10.11;100.00;99155.70;103836;1285;61439;-74
2022/09/03 02:26:53;;;;;;;7.50;2.60;;;;;;;10.09;100.00;99156.37;103867;1282;61565;-74
2022/09/03 02:29:20;;;;;;;4.00;3.10;;;;;;;10.06;100.00;99162.06;104274;1281;75432;-73
2022/09/03 02:31:46;;;;;;;4.70;2.70;;;;;;;10.03;100.00;99165.25;104372;1281;61388;-73
2022/09/03 02:34:13;;;;;;;5.60;2.70;;;;;;;10.01;100.00;99166.29;104417;1281;61389;-74
2022/09/03 02:36:44;;;;;;;6.40;2.70;;;;;;;9.99;100.00;99169.27;104279;1282;61403;-73
2022/09/03 02:39:12;;;;;;;5.80;2.90;;;;;;;9.96;100.00;99165.52;104666;1270;61866;-73
2022/09/03 02:41:38;;;;;;;7.00;3.20;;;;;;;9.93;100.00;99162.85;104869;1270;76346;-72
2022/09/03 02:44:13;;;;;;;6.70;3.10;;;;;;;9.91;100.00;99161.58;104991;1270;61296;-72
2022/09/03 02:47:14;;;;;;;6.40;3.70;;;;;;;9.87;100.00;99164.08;105030;1270;73650;-73
2022/09/03 02:49:41;;;;;;;6.60;3.40;;;;;;;9.82;100.00;99167.77;104751;1277;61339;-73
2022/09/03 02:52:11;;;;;;;6.10;3.60;;;;;;;9.78;100.00;99165.19;104754;1277;61183;-73
2022/09/03 02:54:38;;;;;;;5.40;3.20;;;;;;;9.74;100.00;99170.95;104805;1277;76809;-73
2022/09/03 02:57:07;;;;;;;4.50;2.50;;;;;;;9.71;100.00;99174.66;104575;1278;69354;-72
2022/09/03 02:59:33;;;;;;;4.60;2.90;;;;;;;9.69;100.00;99173.70;104861;1277;74378;-73
2022/09/03 03:02:00;;;;;;;3.50;2.70;;;;;;;9.67;100.00;99173.64;104805;1277;61419;-73
2022/09/03 03:04:26;;;;;;;5.90;2.90;;;;;;;9.66;100.00;99173.91;104832;1277;61329;-75
2022/09/03 03:06:52;;;;;;;5.40;3.10;;;;;;;9.65;100.00;99169.32;104804;1277;61371;-74
2022/09/03 03:09:18;;;;;;;4.20;2.70;;;;;;;9.66;100.00;99169.66;104785;1277;61370;-72
2022/09/03 03:11:45;;;;;;;4.60;2.80;;;;;;;9.65;100.00;99166.70;104502;1278;61415;-75
2022/09/03 03:14:11;;;;;;;5.10;2.60;;;;;;;9.64;100.00;99168.31;104763;1277;61495;-74
2022/09/03 03:16:38;;;;;;;3.80;3.20;;;;;;;9.64;100.00;99171.21;104825;1277;61360;-75
2022/09/03 03:19:04;;;;;;;6.00;4.30;;;;;;;9.63;100.00;99170.38;104762;1277;61296;-73
2022/09/03 03:21:30;;;;;;;7.20;4.30;;;;;;;9.59;100.00;99172.89;104796;1277;61399;-76
2022/09/03 03:23:56;;;;;;;6.00;4.30;;;;;;;9.54;100.00;99175.85;104786;1277;61312;-73
2022/09/03 03:26:23;;;;;;;5.40;4.10;;;;;;;9.50;100.00;99176.12;104853;1271;61348;-73
2022/09/03 03:28:55;;;;;;;7.30;3.70;;;;;;;9.46;100.00;99181.86;105011;1270;61156;-73
2022/09/03 03:31:22;;;;;;;7.70;4.50;;;;;;;9.41;100.00;99181.28;105062;1271;75414;-73
2022/09/03 03:33:52;;;;;;;5.00;3.60;;;;;;;9.36;100.00;99185.27;104992;1270;69488;-74
2022/09/03 03:36:18;;;;;;;4.70;3.30;;;;;;;9.32;100.00;99186.58;104993;1270;73862;-73
2022/09/03 03:38:45;;;;;;;8.20;3.30;;;;;;;9.28;100.00;99183.83;105037;1270;61214;-73
2022/09/03 03:41:20;;;;;;;3.90;3.20;;;;;;;9.24;100.00;99177.82;104968;1270;61354;-74
2022/09/03 03:43:47;;;;;;;7.20;3.60;;;;;;;9.20;100.00;99182.48;105052;1270;76477;-74
2022/09/03 03:46:13;;;;;;;4.10;3.20;;;;;;;9.16;100.00;99174.04;104850;1274;68707;-72
2022/09/03 03:48:40;;;;;;;6.40;4.60;;;;;;;9.11;100.00;99178.95;105018;1270;61299;-73
2022/09/03 03:51:08;;;;;;;4.90;3.60;;;;;;;9.07;100.00;99173.70;105021;1270;61298;-72
2022/09/03 03:53:37;;;;;;;5.50;3.10;;;;;;;9.03;100.00;99174.95;105084;1270;61272;-72
2022/09/03 03:56:06;;;;;;;6.50;3.30;;;;;;;8.99;100.00;99173.98;105072;1270;76423;-73
2022/09/03 03:58:33;;;;;;;4.00;3.20;;;;;;;8.96;100.00;99173.42;105044;1270;69439;-73
2022/09/03 04:01:18;;;;;;;13.00;4.60;;;;;;;8.95;100.00;99171.87;104991;1270;74511;-74
2022/09/03 04:03:45;;;;;;;4.30;3.20;;;;;;;8.96;100.00;99175.36;105059;1270;61354;-74
2022/09/03 04:06:14;;;;;;;6.70;3.70;;;;;;;8.97;100.00;99176.67;105049;1270;61973;-73
2022/09/03 04:08:42;;;;;;;5.70;3.20;;;;;;;9.00;100.00;99173.52;104885;1273;75743;-72
2022/09/03 04:11:10;;;;;;;5.40;3.10;;;;;;;9.03;100.00;99173.73;105052;1270;69498;-73
2022/09/03 04:13:39;;;;;;;7.80;3.50;;;;;;;9.05;100.00;99173.77;104994;1270;73591;-75
2022/09/03 04:16:08;;;;;;;5.40;3.50;;;;;;;9.07;100.00;99173.84;104911;1271;61455;-75
2022/09/03 04:18:36;;;;;;;4.50;3.40;;;;;;;9.09;100.00;99173.20;105053;1270;62136;-74
2022/09/03 04:21:05;;;;;;;5.90;3.90;;;;;;;9.24;100.00;99180.67;105103;1270;75532;-74
2022/09/03 04:23:38;;;;;;;5.00;3.80;;;;;;;9.67;100.00;99181.28;105050;1270;69464;-73
2022/09/03 04:26:05;;;;;;;5.30;4.20;;;;;;;10.12;100.00;99183.90;105079;1270;73417;-73
2022/09/03 04:28:32;;;;;;;9.00;3.60;;;;;;;10.51;100.00;99183.08;105119;1271;61311;-74
2022/09/03 04:31:04;;;;;;;4.80;3.50;;;;;;;10.86;100.00;99180.64;105073;1270;61891;-74
2022/09/03 04:33:31;;;;;;;7.40;3.60;;;;;;;11.22;100.00;99174.70;105068;1270;75347;-74
2022/09/03 04:36:20;;;;;;;9.10;4.00;;;;;;;11.43;100.00;99174.72;105129;1271;69216;-74
2022/09/03 04:38:48;;;;;;;8.50;3.90;;;;;;;12.00;100.00;99174.77;105049;1270;74005;-75
2022/09/03 04:41:17;;;;;;;5.20;3.70;;;;;;;12.50;100.00;99171.77;105047;1270;61311;-73
2022/09/03 04:43:44;;;;;;;6.50;3.70;;;;;;;12.96;100.00;99172.11;105075;1270;62494;-74
2022/09/03 04:46:13;;;;;;;7.70;4.20;;;;;;;13.36;100.00;99172.59;105180;1271;75378;-74
2022/09/03 04:48:39;;;;;;;5.60;3.80;;;;;;;13.74;100.00;99175.77;105092;1270;69328;-73
2022/09/03 04:51:07;;;;;;;7.70;4.40;;;;;;;14.10;99.74;99171.00;105062;1270;61254;-73
2022/09/03 04:53:38;;;;;;;7.40;4.70;;;;;;;14.36;98.69;99172.67;104901;1273;61454;-74
2022/09/03 04:56:14;;;;;;;6.70;4.10;;;;;;;14.71;96.66;99169.15;105053;1270;61338;-74
2022/09/03 04:58:42;;;;;;;5.10;4.40;;;;;;;15.04;93.81;99177.77;105019;1270;76095;-73
2022/09/03 05:01:16;;;;;;;5.80;4.00;;;;;;;15.15;92.42;99176.34;105157;1270;69932;-73
2022/09/03 05:03:43;;;;;;;7.30;4.70;;;;;;;15.56;90.91;99177.51;105228;1270;72009;-75
2022/09/03 05:06:09;;;;;;;8.30;4.10;;;;;;;15.92;89.12;99177.87;105063;1270;61298;-75
2022/09/03 05:08:36;;;;;;;7.30;4.60;;;;;;;16.23;87.77;99178.63;105036;1271;61176;-74
2022/09/03 05:11:06;;;;;;;7.70;4.50;;;;;;;16.54;86.11;99184.85;105076;1271;61356;-74
2022/09/03 05:13:35;;;;;;;5.40;3.90;;;;;;;16.78;84.65;99181.63;105110;1270;70931;-74
2022/09/03 05:16:05;;;;;;;8.60;3.80;;;;;;;17.02;83.26;99182.35;105118;1271;73302;-74
2022/09/03 05:18:31;;;;;;;5.20;3.70;;;;;;;17.17;81.99;99178.14;105098;1270;61400;-74
2022/09/03 05:21:02;;;;;;;5.90;3.60;;;;;;;17.28;80.67;99173.85;104894;1271;61234;-74
2022/09/03 05:23:32;;;;;;;8.50;3.90;;;;;;;17.40;80.03;99178.34;105073;1271;75294;-74
2022/09/03 05:26:00;;;;;;;5.90;3.70;;;;;;;17.49;79.03;99181.45;105090;1270;70568;-75
2022/09/03 05:28:29;;;;;;;7.20;4.20;;;;;;;17.62;76.31;99184.90;105119;1270;74023;-74
2022/09/03 05:31:00;;;;;;;6.20;3.90;;;;;;;17.66;74.77;99186.35;105166;1270;61154;-73
2022/09/03 05:33:27;;;;;;;4.30;3.80;;;;;;;17.72;74.45;99182.91;105116;1270;62267;-75
2022/09/03 05:35:59;;;;;;;8.50;4.40;;;;;;;17.76;73.64;99178.55;105141;1270;76134;-76
2022/09/03 05:38:25;;;;;;;6.50;3.90;;;;;;;17.76;72.71;99178.75;105090;1270;69386;-74
2022/09/03 05:40:51;;;;;;;5.20;3.50;;;;;;;17.75;71.24;99176.20;105109;1270;61361;-73
2022/09/03 05:43:18;;;;;;;5.50;3.80;;;;;;;17.72;70.44;99174.16;105051;1270;61304;-74
2022/09/03 05:45:45;;;;;;;5.00;3.70;;;;;;;17.60;69.92;99166.60;105114;1270;61273;-74
2022/09/03 05:48:11;;;;;;;5.50;3.50;;;;;;;17.50;69.59;99167.48;105036;1271;61291;-74
2022/09/03 05:50:37;;;;;;;4.90;4.20;;;;;;;17.45;69.68;99169.05;105034;1271;61306;-74
2022/09/03 05:53:03;;;;;;;7.80;3.90;;;;;;;17.47;69.83;99169.64;105073;1270;61803;-72
2022/09/03 05:55:28;;;;;;;6.70;4.00;;;;;;;17.47;69.97;99166.25;105080;1270;61334;-74
2022/09/03 05:57:55;;;;;;;5.70;4.10;;;;;;;17.57;70.05;99166.36;104956;1273;60976;-73
2022/09/03 06:00:21;;;;;;;6.40;3.80;;;;;;;17.61;69.47;99169.61;105078;1270;61329;-74
2022/09/03 06:02:51;;;;;;;5.80;4.40;;;;;;;17.52;69.25;99168.39;105075;1270;61291;-74
2022/09/03 06:05:18;;;;;;;6.40;4.20;;;;;;;17.42;69.35;99165.06;104929;1273;74490;-74
2022/09/03 06:07:48;;;;;;;6.80;4.30;;;;;;;17.35;69.29;99167.63;104919;1273;61343;-73
2022/09/03 06:10:16;;;;;;;6.40;4.60;;;;;;;17.37;69.81;99164.28;105065;1271;61627;-73
2022/09/03 06:12:44;;;;;;;6.30;4.10;;;;;;;17.40;69.74;99161.87;104900;1274;76386;-73
2022/09/03 06:15:11;;;;;;;5.80;4.20;;;;;;;17.31;69.65;99161.36;105016;1270;70305;-74
2022/09/03 06:17:37;;;;;;;6.40;4.80;;;;;;;17.08;69.99;99163.54;104918;1273;61369;-74
2022/09/03 06:20:05;;;;;;;6.80;4.70;;;;;;;16.96;70.80;99160.69;105098;1271;61260;-74
2022/09/03 06:22:31;;;;;;;7.60;5.10;;;;;;;16.97;71.25;99165.45;104072;1271;1411541;-74
2022/09/03 06:24:57;;;;;;;7.00;4.80;;;;;;;17.01;71.96;99164.85;105089;1270;61192;-74
2022/09/03 06:27:23;;;;;;;7.70;5.10;;;;;;;16.86;72.47;99163.55;105066;1271;61375;-75
2022/09/03 06:29:49;;;;;;;8.40;4.90;;;;;;;16.67;72.57;99171.98;104863;1270;61366;-73
2022/09/03 06:32:15;;;;;;;7.30;5.40;;;;;;;16.37;73.20;99172.55;105069;1271;61278;-74
2022/09/03 06:34:41;;;;;;;7.90;5.00;;;;;;;16.16;74.04;99176.33;104914;1271;61513;-74
2022/09/03 06:37:07;;;;;;;6.80;4.90;;;;;;;16.03;74.72;99180.84;105063;1270;61314;-74
2022/09/03 06:39:34;;;;;;;8.20;5.60;;;;;;;15.87;75.10;99183.88;105130;1271;61391;-73
2022/09/03 06:42:00;;;;;;;6.70;4.90;;;;;;;15.70;75.61;99182.61;104983;1271;61256;-74
2022/09/03 06:44:26;;;;;;;5.60;4.00;;;;;;;15.56;76.69;99183.61;105121;1270;61364;-73
2022/09/03 06:46:52;;;;;;;8.00;4.60;;;;;;;15.46;77.15;99184.33;105091;1270;77108;-74
2022/09/03 06:49:19;;;;;;;6.60;4.40;;;;;;;15.41;77.99;99185.98;105109;1271;61367;-74
2022/09/03 06:51:45;;;;;;;6.10;4.60;;;;;;;15.32;78.44;99191.48;105092;1271;61187;-73
2022/09/03 06:54:11;;;;;;;5.80;4.60;;;;;;;15.28;78.97;99195.47;105117;1271;61645;-73
2022/09/03 06:56:40;;;;;;;5.40;4.40;;;;;;;15.31;79.33;99197.30;105155;1270;61384;-74
2022/09/03 06:59:11;;;;;;;7.60;4.20;;;;;;;15.44;79.82;99203.27;105086;1271;76350;-73
2022/09/03 07:01:42;;;;;;;6.70;4.50;;;;;;;15.48;79.63;99200.42;105140;1270;70080;-73
2022/09/03 07:04:09;;;;;;;9.10;4.20;;;;;;;15.48;79.96;99203.06;104877;1271;73419;-73
2022/09/03 07:06:37;;;;;;;8.60;4.30;;;;;;;15.53;80.24;99205.88;105093;1271;61306;-74
2022/09/03 07:09:05;;;;;;;5.10;4.10;;;;;;;15.59;80.62;99209.31;105194;1271;62034;-73
2022/09/03 07:11:34;;;;;;;6.10;4.50;;;;;;;15.68;80.64;99210.95;105092;1271;76353;-73
2022/09/03 07:14:02;;;;;;;5.20;4.20;;;;;;;15.78;80.46;99212.73;105142;1271;68821;-74
2022/09/03 07:16:33;;;;;;;5.60;3.90;;;;;;;15.81;80.40;99213.23;104874;1271;73015;-74
2022/09/03 07:18:59;;;;;;;;;;;;;;;15.81;80.15;99207.50;105050;1271;61304;-74
2022/09/03 07:21:28;;;;;;;6.50;4.00;;;;;;;15.86;80.67;99199.77;105097;1271;61260;-74
2022/09/03 07:23:56;;;;;;;7.60;4.40;;;;;;;16.10;80.89;99193.52;105081;1271;76798;-73
2022/09/03 07:26:24;;;;;;;9.00;4.60;;;;;;;16.27;79.93;99194.42;105172;1271;70442;-73
2022/09/03 07:28:52;;;;;;;8.10;4.60;;;;;;;16.42;79.58;99195.39;105042;1271;74318;-73
2022/09/03 07:31:25;;;;;;;6.00;4.90;;;;;;;16.59;79.05;99192.80;105098;1271;61262;-73
2022/09/03 07:33:55;;;;;;;6.30;4.60;;;;;;;16.79;78.26;99191.43;105042;1272;61266;-73
2022/09/03 07:36:23;;;;;;;6.80;4.40;;;;;;;16.98;78.29;99186.34;105152;1271;75252;-74
2022/09/03 07:38:50;;;;;;;5.50;4.00;;;;;;;17.19;77.66;99185.83;105031;1271;69540;-74
2022/09/03 07:41:16;;;;;;;5.90;4.40;;;;;;;17.30;77.32;99188.93;105095;1271;73280;-74
2022/09/03 07:43:46;;;;;;;5.70;3.50;;;;;;;17.37;76.50;99193.02;105018;1271;61822;-74
2022/09/03 07:46:20;;;;;;;4.10;3.30;;;;;;;17.38;76.17;99197.04;104794;1271;61376;-74
2022/09/03 07:48:47;;;;;;;4.40;3.50;;;;;;;17.31;75.86;99195.36;104902;1271;76389;-74
2022/09/03 07:51:14;;;;;;;5.20;3.90;;;;;;;17.25;76.16;99197.66;105053;1271;70597;-73
2022/09/03 07:53:43;;;;;;;5.30;3.60;;;;;;;17.30;76.84;99195.09;105041;1271;74801;-74
2022/09/03 07:56:10;;;;;;;7.00;3.70;;;;;;;17.39;75.76;99196.02;105114;1271;62103;-75
2022/09/03 07:58:39;;;;;;;4.20;3.80;;;;;;;17.47;73.77;99199.48;104981;1271;62001;-74
2022/09/03 08:01:18;;;;;;;3.30;3.00;;;;;;;17.45;73.02;99198.88;105090;1271;76334;-74
2022/09/03 08:03:46;;;;;;;7.30;3.40;;;;;;;17.44;73.24;99201.73;105096;1271;70288;-75
2022/09/03 08:06:13;;;;;;;4.70;3.60;;;;;;;17.43;73.09;99200.91;105117;1271;73901;-74
2022/09/03 08:08:40;;;;;;;6.30;3.70;;;;;;;17.48;73.57;99201.73;105117;1271;61276;-73
2022/09/03 08:11:12;;;;;;;5.20;3.90;;;;;;;17.57;73.64;99204.59;105050;1271;61290;-75
2022/09/03 08:13:43;;;;;;;5.20;3.60;;;;;;;17.68;73.38;99203.99;104822;1274;76417;-75
2022/09/03 08:16:12;;;;;;;6.90;3.10;;;;;;;17.70;72.87;99210.61;104981;1271;69553;-73
2022/09/03 08:18:39;;;;;;;4.70;2.70;;;;;;;17.64;72.60;99214.23;105038;1271;72910;-73
2022/09/03 08:21:14;;;;;;;6.10;3.20;;;;;;;17.64;73.10;99213.70;104979;1271;61370;-72
2022/09/03 08:23:43;;;;;;;4.90;3.00;;;;;;;17.68;72.82;99215.06;105130;1270;61265;-73
2022/09/03 08:26:10;;;;;;;3.90;3.50;;;;;;;17.71;73.03;99210.48;105085;1271;76601;-75
2022/09/03 08:28:37;;;;;;;4.10;2.80;;;;;;;17.73;72.94;99210.52;105078;1271;69214;-73
2022/09/03 08:31:15;;;;;;;4.30;2.80;;;;;;;17.66;72.60;99212.46;105058;1271;74429;-73
2022/09/03 08:33:44;;;;;;;4.00;2.90;;;;;;;17.54;72.69;99214.07;105136;1271;61391;-74
2022/09/03 08:36:21;;;;;;;5.90;3.00;;;;;;;17.33;72.76;99212.89;105044;1271;62199;-74
2022/09/03 08:38:51;;;;;;;4.10;3.00;;;;;;;17.17;73.44;99208.11;104977;1271;76468;-75
2022/09/03 08:41:19;;;;;;;2.70;2.50;;;;;;;17.11;74.02;99206.45;105085;1271;69143;-74
2022/09/03 08:44:10;;;;;;;4.30;2.90;;;;;;;17.05;74.42;99208.34;105072;1271;73084;-73
2022/09/03 08:46:57;;;;;;;4.20;3.20;;;;;;;17.08;75.34;99207.64;105092;1271;61399;-74
2022/09/03 08:49:47;;;;;;;4.70;2.70;;;;;;;17.22;75.32;99202.61;105098;1271;61843;-73
2022/09/03 08:52:25;;;;;;;5.00;3.20;;;;;;;17.31;75.20;99197.19;105057;1271;75782;-73
2022/09/03 08:54:59;;;;;;;4.60;2.60;;;;;;;17.50;75.41;99201.36;105037;1271;69315;-74
2022/09/03 08:57:25;;;;;;;3.30;2.30;;;;;;;17.64;74.38;99201.50;105052;1271;73448;-73
2022/09/03 08:59:55;;;;;;;3.20;2.30;;;;;;;17.75;74.16;99199.91;105045;1271;61380;-73
2022/09/03 09:02:40;;;;;;;2.40;2.20;;;;;;;17.96;73.90;99194.39;105098;1271;61311;-75
2022/09/03 09:05:11;;;;;;;3.00;2.60;;;;;;;18.24;73.51;99190.81;105053;1271;74829;-74
2022/09/03 09:08:00;;;;;;;4.80;2.30;;;;;;;18.37;72.03;99186.67;105128;1271;69332;-74
2022/09/03 09:10:40;;;;;;;3.80;2.20;;;;;;;18.36;71.76;99184.74;105049;1270;74548;-74
2022/09/03 09:13:44;;;;;;;9.20;2.30;;;;;;;18.46;71.28;99184.40;105097;1270;61309;-74
2022/09/03 09:16:12;;;;;;;4.30;2.00;;;;;;;18.60;70.04;99185.53;105080;1271;61343;-74
2022/09/03 09:18:54;;;;;;;2.80;1.90;;;;;;;18.62;69.75;99181.40;105050;1270;75301;-75
2022/09/03 09:21:31;;;;;;;2.60;1.90;;;;;;;18.63;69.90;99184.55;105070;1271;69465;-74
2022/09/03 09:24:03;;;;;;;2.90;1.60;;;;;;;18.77;70.07;99184.13;105066;1270;72743;-74
2022/09/03 09:26:30;;;;;;;2.60;1.50;;;;;;;18.93;68.41;99186.15;105067;1271;61413;-73
2022/09/03 09:29:03;;;;;;;1.50;1.40;;;;;;;18.91;67.53;99187.91;105049;1270;61826;-75
2022/09/03 09:31:29;;;;;;;1.60;1.50;;;;;;;18.94;67.63;99185.02;105105;1270;76871;-73
2022/09/03 09:34:05;;;;;;;2.20;1.40;;;;;;;18.91;66.32;99181.89;105084;1270;70145;-73
2022/09/03 09:36:41;;;;;;;2.50;2.30;;;;;;;18.80;66.11;99179.83;105151;1270;74236;-74
2022/09/03 09:39:09;;;;;;;2.20;2.10;;;;;;;18.76;66.96;99182.05;105025;1271;61302;-74
2022/09/03 09:41:36;;;;;;;2.20;2.00;;;;;;;18.88;67.40;99182.43;105122;1270;61183;-73
2022/09/03 09:44:06;;;;;;;3.00;2.00;;;;;;;18.99;67.17;99183.25;105084;1270;63094;-75
2022/09/03 09:46:38;;;;;;;;;;;;;;;19.04;67.10;99191.70;105063;1270;70544;-73
2022/09/03 09:49:27;;;;;;;1.80;1.60;;;;;;;18.98;66.55;99194.79;105097;1270;73581;-74
2022/09/03 09:52:24;;;;;;;3.20;1.80;;;;;;;18.86;66.30;99194.92;105081;1270;61287;-74
2022/09/03 09:54:53;;;;;;;2.70;2.00;;;;;;;18.69;66.79;99194.01;104322;1281;61963;-74
2022/09/03 09:57:23;;;;;;;2.30;1.90;;;;;;;18.61;66.58;99199.07;104431;1280;75887;-73
2022/09/03 10:00:07;;;;;;;4.80;1.80;;;;;;;18.61;66.45;99199.80;104301;1283;70999;-75
2022/09/03 10:02:35;;;;;;;1.90;1.70;;;;;;;18.66;66.52;99206.55;104242;1283;73563;-73
2022/09/03 10:05:13;;;;;;;2.90;2.30;;;;;;;18.74;66.28;99197.13;104668;1280;61253;-74
2022/09/03 10:07:39;;;;;;;4.10;2.40;;;;;;;18.82;66.06;99196.33;104581;1280;62010;-74
2022/09/03 10:10:15;;;;;;;3.00;2.30;;;;;;;18.88;66.16;99197.23;104622;1280;61432;-74
2022/09/03 10:12:49;;;;;;;2.50;2.30;;;;;;;18.88;65.54;99200.14;104540;1280;68480;-75
2022/09/03 10:15:31;;;;;;;2.80;2.60;;;;;;;18.90;66.12;99197.37;104534;1280;74274;-76
2022/09/03 10:18:16;;;;;;;3.60;3.10;;;;;;;18.93;65.89;99190.45;104480;1280;63101;-75
2022/09/03 10:20:58;;;;;;;3.80;2.70;;;;;;;18.99;66.31;99191.45;104197;1281;61399;-76
2022/09/03 10:23:27;;;;;;;3.20;2.50;;;;;;;19.08;66.04;99192.60;104554;1280;76421;-73
2022/09/03 10:25:56;;;;;;;3.60;2.80;;;;;;;19.09;66.04;99182.23;104490;1280;69466;-75
2022/09/03 10:28:27;;;;;;;;;;;;;;;19.20;65.72;99185.60;104564;1280;73393;-76
2022/09/03 10:31:05;;;;;;;4.20;3.30;;;;;;;19.20;65.36;99181.85;104587;1272;61416;-78
2022/09/03 10:33:48;;;;;;;2.50;2.30;;;;;;;19.39;65.23;99186.58;105084;1270;61812;-76
2022/09/03 10:36:23;;;;;;;2.70;2.50;;;;;;;19.55;64.66;99183.02;105130;1270;75310;-75
2022/09/03 10:39:03;;;;;;;3.40;2.80;;;;;;;19.86;64.24;99177.14;105081;1270;69524;-75
2022/09/03 10:42:02;;;;;;;2.70;2.50;;;;;;;20.09;63.78;99179.12;105008;1271;74372;-74
2022/09/03 10:44:38;;;;;;;3.00;2.60;;;;;;;20.14;63.38;99180.20;104837;1271;61804;-73
2022/09/03 10:47:31;;;;;;;2.90;2.60;;;;;;;20.17;63.09;99178.61;105071;1271;61923;-75
2022/09/03 10:50:16;;;;;;;4.70;3.30;;;;;;;20.00;62.21;99183.52;105065;1270;74635;-74
2022/09/03 10:53:04;;;;;;;5.00;3.30;;;;;;;19.74;62.80;99176.79;104897;1272;67750;-74
2022/09/03 10:55:46;;;;;;;3.70;2.70;;;;;;;19.51;63.20;99173.44;105023;1270;74508;-74
2022/09/03 10:58:41;;;;;;;3.40;2.40;;;;;;;19.57;64.18;99169.66;105074;1270;61243;-73
2022/09/03 11:01:27;;;;;;;5.10;2.80;;;;;;;19.74;63.85;99168.05;105084;1270;62143;-75
2022/09/03 11:04:13;;;;;;;2.50;2.30;;;;;;;19.78;63.94;99158.38;105125;1270;75160;-73
2022/09/03 11:06:57;;;;;;;2.70;2.30;;;;;;;19.78;63.78;99153.30;105013;1270;70294;-73
2022/09/03 11:09:52;;;;;;;2.80;2.40;;;;;;;19.72;63.14;99161.46;105106;1270;74698;-74
2022/09/03 11:12:28;;;;;;;3.30;2.50;;;;;;;19.47;63.49;99155.56;104883;1271;61359;-74
2022/09/03 11:15:21;;;;;;;2.70;2.50;;;;;;;19.54;64.03;99158.60;105041;1271;61805;-75
2022/09/03 11:17:55;;;;;;;2.50;2.30;;;;;;;19.53;62.47;99156.18;104981;1271;75798;-74
2022/09/03 11:20:23;;;;;;;4.90;3.00;;;;;;;19.47;63.13;99153.36;104948;1271;70478;-73
2022/09/03 11:23:03;;;;;;;2.90;2.70;;;;;;;19.55;63.94;99152.52;105003;1271;74492;-74
2022/09/03 11:25:33;;;;;;;3.00;2.80;;;;;;;19.75;64.16;99150.68;104958;1271;61273;-74
2022/09/03 11:28:30;;;;;;;2.70;2.50;;;;;;;19.99;64.09;99143.77;105110;1271;61203;-73
2022/09/03 11:31:17;;;;;;;2.80;2.50;;;;;;;20.15;62.97;99141.27;104934;1271;76233;-73
2022/09/03 11:34:00;;;;;;;4.80;2.60;;;;;;;20.09;63.10;99139.48;104973;1271;67915;-74
2022/09/03 11:36:33;;;;;;;3.20;2.90;;;;;;;20.11;63.51;99138.17;105116;1271;72764;-74
2022/09/03 11:39:00;;;;;;;4.20;3.10;;;;;;;20.18;63.63;99134.86;104897;1271;61372;-74
2022/09/03 11:41:34;;;;;;;3.70;2.90;;;;;;;20.21;63.00;99132.61;104953;1270;61265;-76
2022/09/03 11:44:17;;;;;;;2.80;2.60;;;;;;;20.21;63.50;99131.84;105130;1270;75537;-74
2022/09/03 11:46:57;;;;;;;4.30;3.30;;;;;;;20.42;63.02;99129.30;104860;1271;70430;-75
2022/09/03 11:49:29;;;;;;;4.00;3.40;;;;;;;20.59;62.54;99129.84;105095;1270;73518;-74
2022/09/03 11:52:03;;;;;;;4.50;4.10;;;;;;;20.52;62.03;99126.86;104982;1271;61699;-74
2022/09/03 11:54:32;;;;;;;4.80;3.50;;;;;;;20.43;62.46;99132.26;105135;1270;62038;-73
2022/09/03 11:57:15;;;;;;;3.40;3.00;;;;;;;20.30;62.16;99124.95;105138;1270;75455;-73